createdAt,value
2019-06-26T00:02:13.168Z,6.00
2019-06-26T00:04:41.703Z,6.55
2019-06-26T00:07:10.199Z,6.97
2019-06-26T00:09:38.760Z,6.60
2019-06-26T00:12:07.235Z,6.40
2019-06-26T00:14:38.653Z,6.75
2019-06-26T00:17:06.067Z,6.42
2019-06-26T00:19:34.580Z,6.28
2019-06-26T00:22:03.039Z,6.78
2019-06-26T00:24:31.567Z,6.75
2019-06-26T00:27:00.126Z,6.55
2019-06-26T00:29:28.761Z,6.47
2019-06-26T00:31:57.321Z,6.95
2019-06-26T00:34:26.179Z,5.62
2019-06-26T00:36:54.785Z,6.42
2019-06-26T00:39:23.285Z,6.30
2019-06-26T00:41:51.818Z,6.55
2019-06-26T00:44:20.326Z,6.47
2019-06-26T00:46:48.829Z,6.70
2019-06-26T00:49:17.443Z,6.22
2019-06-26T00:51:45.985Z,6.62
2019-06-26T00:54:14.488Z,6.53
2019-06-26T00:56:43.117Z,6.87
2019-06-26T00:59:11.592Z,6.65
2019-06-26T01:01:40.180Z,6.50
2019-06-26T01:04:13.073Z,6.95
2019-06-26T01:06:44.613Z,7.08
2019-06-26T01:09:14.631Z,6.80
2019-06-26T01:11:43.790Z,6.70
2019-06-26T01:14:12.417Z,7.58
2019-06-26T01:16:41.325Z,6.97
2019-06-26T01:19:09.946Z,7.12
2019-06-26T01:21:38.422Z,6.55
2019-06-26T01:24:07.069Z,6.97
2019-06-26T01:26:35.716Z,7.45
2019-06-26T01:29:04.326Z,7.10
2019-06-26T01:31:32.907Z,7.03
2019-06-26T01:34:01.458Z,7.55
2019-06-26T01:36:29.996Z,7.00
2019-06-26T01:38:58.482Z,6.72
2019-06-26T01:41:26.954Z,6.85
2019-06-26T01:43:55.584Z,7.55
2019-06-26T01:46:24.155Z,8.18
2019-06-26T01:48:52.619Z,7.97
2019-06-26T01:51:21.107Z,6.85
2019-06-26T01:53:49.585Z,7.50
2019-06-26T01:56:18.221Z,7.25
2019-06-26T01:58:46.764Z,7.17
2019-06-26T02:01:15.361Z,7.35
2019-06-26T02:03:43.898Z,7.03
2019-06-26T02:06:12.519Z,7.25
2019-06-26T02:08:41.161Z,7.78
2019-06-26T02:11:09.740Z,7.03
2019-06-26T02:13:38.307Z,7.12
2019-06-26T02:16:06.905Z,6.92
2019-06-26T02:18:40.038Z,7.35
2019-06-26T02:21:08.643Z,7.53
2019-06-26T02:23:37.132Z,7.20
2019-06-26T02:26:05.798Z,7.47
2019-06-26T02:28:34.305Z,7.45
2019-06-26T02:31:02.923Z,7.53
2019-06-26T02:33:31.516Z,7.58
2019-06-26T02:36:00.138Z,8.13
2019-06-26T02:38:28.651Z,7.45
2019-06-26T02:40:57.217Z,6.53
2019-06-26T02:43:25.768Z,7.12
2019-06-26T02:45:54.330Z,7.35
2019-06-26T02:48:22.895Z,7.60
2019-06-26T02:50:51.607Z,7.37
2019-06-26T02:53:20.140Z,15.83
2019-06-26T02:55:48.628Z,13.53
2019-06-26T02:58:17.264Z,10.40
2019-06-26T03:00:45.767Z,8.68
2019-06-26T03:03:14.313Z,8.23
2019-06-26T03:05:42.902Z,7.65
2019-06-26T03:08:11.484Z,7.85
2019-06-26T03:10:40.027Z,8.18
2019-06-26T03:13:08.555Z,8.28
2019-06-26T03:15:37.053Z,8.18
2019-06-26T03:18:05.567Z,8.70
2019-06-26T03:20:37.167Z,7.62
2019-06-26T03:23:05.821Z,8.08
2019-06-26T03:25:34.373Z,8.75
2019-06-26T03:28:02.854Z,8.63
2019-06-26T03:30:31.491Z,8.28
2019-06-26T03:33:00.180Z,8.23
2019-06-26T03:35:28.675Z,8.70
2019-06-26T03:37:57.152Z,8.95
2019-06-26T03:40:25.705Z,8.63
2019-06-26T03:42:54.172Z,8.03
2019-06-26T03:45:26.138Z,8.60
2019-06-26T03:47:53.072Z,7.95
2019-06-26T03:50:21.762Z,7.70
2019-06-26T03:52:50.627Z,8.03
2019-06-26T03:55:19.386Z,7.97
2019-06-26T03:57:48.000Z,7.78
2019-06-26T04:00:19.571Z,8.08
2019-06-26T04:02:48.072Z,8.00
2019-06-26T04:05:16.615Z,8.33
2019-06-26T04:07:45.156Z,8.05
2019-06-26T04:10:13.777Z,8.63
2019-06-26T04:12:42.330Z,8.85
2019-06-26T04:15:11.233Z,7.25
2019-06-26T04:17:39.804Z,7.75
2019-06-26T04:20:08.590Z,7.92
2019-06-26T04:22:37.209Z,8.05
2019-06-26T04:25:08.949Z,7.75
2019-06-26T04:27:37.574Z,8.40
2019-06-26T04:30:10.574Z,7.78
2019-06-26T04:32:39.342Z,7.95
2019-06-26T04:35:08.752Z,7.75
2019-06-26T04:37:37.447Z,7.37
2019-06-26T04:40:10.176Z,7.97
2019-06-26T04:42:38.736Z,7.37
2019-06-26T04:45:08.240Z,7.72
2019-06-26T04:47:37.071Z,7.90
2019-06-26T04:50:06.801Z,7.50
2019-06-26T04:52:35.869Z,7.80
2019-06-26T04:55:06.705Z,8.45
2019-06-26T04:57:35.252Z,8.15
2019-06-26T05:00:06.019Z,8.30
2019-06-26T05:02:34.739Z,8.95
2019-06-26T05:05:04.567Z,8.53
2019-06-26T05:07:33.071Z,8.78
2019-06-26T05:10:01.677Z,8.88
2019-06-26T05:12:30.163Z,7.08
2019-06-26T05:14:58.614Z,6.70
2019-06-26T05:17:27.172Z,6.95
2019-06-26T05:19:55.703Z,6.65
2019-06-26T05:22:24.260Z,6.35
2019-06-26T05:24:52.738Z,6.15
2019-06-26T05:27:21.345Z,6.40
2019-06-26T05:29:49.857Z,7.08
2019-06-26T05:32:18.536Z,7.15
2019-06-26T05:34:47.088Z,6.50
2019-06-26T05:37:15.618Z,7.22
2019-06-26T05:39:44.182Z,6.25
2019-06-26T05:42:12.633Z,7.17
2019-06-26T05:44:41.111Z,7.08
2019-06-26T05:47:09.714Z,7.12
2019-06-26T05:49:38.251Z,6.03
2019-06-26T05:52:06.802Z,6.12
2019-06-26T05:54:35.364Z,5.62
2019-06-26T05:57:03.959Z,5.87
2019-06-26T05:59:32.503Z,5.80
2019-06-26T06:02:01.029Z,6.12
2019-06-26T06:04:29.510Z,6.15
2019-06-26T06:06:58.007Z,6.20
2019-06-26T06:09:26.617Z,6.35
2019-06-26T06:11:55.071Z,6.60
2019-06-26T06:14:23.632Z,6.08
2019-06-26T06:16:52.163Z,6.90
2019-06-26T06:19:20.720Z,6.30
2019-06-26T06:21:49.246Z,6.78
2019-06-26T06:24:17.735Z,6.67
2019-06-26T06:26:46.220Z,6.67
2019-06-26T06:29:14.698Z,6.70
2019-06-26T06:31:43.607Z,6.08
2019-06-26T06:34:12.251Z,6.62
2019-06-26T06:36:40.781Z,6.40
2019-06-26T06:39:09.251Z,6.50
2019-06-26T06:41:37.748Z,5.90
2019-06-26T06:44:06.385Z,7.10
2019-06-26T06:46:34.917Z,6.67
2019-06-26T06:49:03.474Z,6.78
2019-06-26T06:51:32.001Z,6.90
2019-06-26T06:54:00.498Z,6.50
2019-06-26T06:56:29.037Z,6.40
2019-06-26T06:58:57.605Z,6.53
2019-06-26T07:01:26.064Z,6.90
2019-06-26T07:03:54.605Z,7.17
2019-06-26T07:06:23.236Z,6.75
2019-06-26T07:08:51.776Z,6.80
2019-06-26T07:11:20.264Z,6.80
2019-06-26T07:13:48.731Z,6.42
2019-06-26T07:16:17.314Z,6.03
2019-06-26T07:18:46.252Z,6.78
2019-06-26T07:21:14.973Z,6.62
2019-06-26T07:23:43.606Z,7.03
2019-06-26T07:26:13.395Z,7.03
2019-06-26T07:28:42.193Z,7.12
2019-06-26T07:31:10.819Z,6.53
2019-06-26T07:33:39.305Z,6.62
2019-06-26T07:36:07.864Z,7.28
2019-06-26T07:38:36.342Z,6.85
2019-06-26T07:41:04.904Z,6.20
2019-06-26T07:43:33.425Z,6.75
2019-06-26T07:46:01.941Z,6.28
2019-06-26T07:48:30.559Z,6.40
2019-06-26T07:50:59.095Z,6.45
2019-06-26T07:53:27.650Z,7.03
2019-06-26T07:55:56.229Z,6.17
2019-06-26T07:58:24.764Z,6.80
2019-06-26T08:00:53.358Z,6.22
2019-06-26T08:03:21.970Z,6.65
2019-06-26T08:05:50.620Z,6.60
2019-06-26T08:08:19.206Z,6.78
2019-06-26T08:10:47.883Z,6.85
2019-06-26T08:13:16.376Z,6.35
2019-06-26T08:15:44.863Z,6.85
2019-06-26T08:18:14.178Z,6.55
2019-06-26T08:21:00.474Z,6.60
2019-06-26T08:23:12.932Z,6.37
2019-06-26T08:25:41.506Z,6.87
2019-06-26T08:28:10.125Z,6.70
2019-06-26T08:30:38.673Z,6.67
2019-06-26T08:33:07.205Z,6.85
2019-06-26T08:35:35.658Z,6.28
2019-06-26T08:38:10.994Z,6.47
2019-06-26T08:40:34.400Z,7.00
2019-06-26T08:43:02.902Z,6.08
2019-06-26T08:45:31.425Z,6.95
2019-06-26T08:48:13.475Z,7.08
2019-06-26T08:50:30.193Z,7.65
2019-06-26T08:52:58.684Z,7.42
2019-06-26T08:55:27.313Z,7.67
2019-06-26T08:57:55.856Z,8.03
2019-06-26T09:00:25.010Z,7.70
2019-06-26T09:02:53.504Z,7.62
2019-06-26T09:05:22.107Z,7.22
2019-06-26T09:07:50.609Z,7.12
2019-06-26T09:10:19.363Z,6.90
2019-06-26T09:12:47.850Z,6.87
2019-06-26T09:15:16.449Z,6.33
2019-06-26T09:17:44.935Z,6.95
2019-06-26T09:20:13.721Z,6.75
2019-06-26T09:22:42.268Z,6.30
2019-06-26T09:25:21.430Z,6.67
2019-06-26T09:27:41.200Z,6.90
2019-06-26T09:30:10.117Z,6.78
2019-06-26T09:32:38.612Z,6.62
2019-06-26T09:35:07.327Z,6.55
2019-06-26T09:37:35.848Z,5.90
2019-06-26T09:40:05.966Z,6.80
2019-06-26T09:42:34.443Z,6.62
2019-06-26T09:45:03.130Z,6.60
2019-06-26T09:47:31.686Z,6.62
2019-06-26T09:50:00.187Z,6.15
2019-06-26T09:52:28.828Z,6.08
2019-06-26T09:54:57.371Z,6.25
2019-06-26T09:57:25.850Z,5.80
2019-06-26T09:59:54.359Z,6.37
2019-06-26T10:02:22.935Z,6.42
2019-06-26T10:04:51.509Z,6.12
2019-06-26T10:07:20.058Z,6.50
2019-06-26T10:09:48.569Z,6.25
2019-06-26T10:12:17.169Z,7.92
2019-06-26T10:14:47.976Z,5.97
2019-06-26T10:17:16.041Z,6.05
2019-06-26T10:19:44.581Z,5.25
2019-06-26T10:22:13.135Z,4.92
2019-06-26T10:24:41.638Z,5.62
2019-06-26T10:27:10.209Z,4.80
2019-06-26T10:29:38.823Z,4.72
2019-06-26T10:32:07.311Z,4.22
2019-06-26T10:34:35.878Z,4.22
2019-06-26T10:37:04.880Z,5.35
2019-06-26T10:39:33.507Z,6.03
2019-06-26T10:42:01.972Z,5.97
2019-06-26T10:44:30.670Z,5.40
2019-06-26T10:46:59.286Z,4.75
2019-06-26T10:49:28.131Z,5.53
2019-06-26T10:51:56.834Z,5.47
2019-06-26T10:54:25.430Z,4.95
2019-06-26T10:56:53.947Z,4.95
2019-06-26T10:59:22.411Z,5.25
2019-06-26T11:01:50.875Z,5.30
2019-06-26T11:04:19.433Z,5.50
2019-06-26T11:06:47.992Z,5.78
2019-06-26T11:09:16.557Z,5.40
2019-06-26T11:11:45.078Z,5.92
2019-06-26T11:14:13.645Z,5.92
2019-06-26T11:16:42.123Z,5.33
2019-06-26T11:19:10.766Z,7.10
2019-06-26T11:21:39.248Z,6.22
2019-06-26T11:24:07.782Z,6.15
2019-06-26T11:26:36.262Z,6.22
2019-06-26T11:29:04.823Z,5.95
2019-06-26T11:31:33.295Z,6.67
2019-06-26T11:34:01.816Z,6.40
2019-06-26T11:36:30.398Z,6.20
2019-06-26T11:38:58.935Z,6.17
2019-06-26T11:41:27.487Z,6.50
2019-06-26T11:43:56.433Z,6.60
2019-06-26T11:46:24.971Z,6.17
2019-06-26T11:48:53.423Z,6.20
2019-06-26T11:51:21.911Z,6.10
2019-06-26T11:53:50.544Z,5.50
2019-06-26T11:56:19.157Z,5.70
2019-06-26T11:58:47.693Z,5.80
2019-06-26T12:01:16.270Z,6.70
2019-06-26T12:03:44.749Z,5.60
2019-06-26T12:06:18.871Z,5.65
2019-06-26T12:08:43.431Z,5.90
2019-06-26T12:11:11.978Z,5.80
2019-06-26T12:13:40.528Z,5.53
2019-06-26T12:16:09.154Z,5.70
2019-06-26T12:18:37.634Z,6.47
2019-06-26T12:21:06.204Z,5.70
2019-06-26T12:23:34.762Z,5.37
2019-06-26T12:26:03.264Z,6.30
2019-06-26T12:28:31.860Z,5.58
2019-06-26T12:31:00.415Z,5.28
2019-06-26T12:33:28.911Z,5.65
2019-06-26T12:35:57.516Z,5.60
2019-06-26T12:38:26.100Z,5.17
2019-06-26T12:40:54.900Z,5.28
2019-06-26T12:43:23.424Z,5.33
2019-06-26T12:45:52.056Z,5.85
2019-06-26T12:48:20.524Z,5.62
2019-06-26T12:50:49.100Z,5.83
2019-06-26T12:53:17.666Z,6.10
2019-06-26T12:55:46.126Z,5.80
2019-06-26T12:58:19.444Z,5.60
2019-06-26T13:00:45.278Z,6.00
2019-06-26T13:03:13.739Z,6.28
2019-06-26T13:05:42.309Z,5.90
2019-06-26T13:08:10.846Z,5.58
2019-06-26T13:10:49.856Z,6.10
2019-06-26T13:13:09.530Z,5.53
2019-06-26T13:15:38.039Z,5.42
2019-06-26T13:18:06.562Z,5.72
2019-06-26T13:20:51.620Z,5.97
2019-06-26T13:23:05.464Z,5.58
2019-06-26T13:25:34.077Z,5.33
2019-06-26T13:28:02.749Z,5.08
2019-06-26T13:30:36.906Z,5.22
2019-06-26T13:33:05.588Z,5.45
2019-06-26T13:35:34.191Z,5.22
2019-06-26T13:38:02.771Z,5.00
2019-06-26T13:40:31.370Z,5.42
2019-06-26T13:42:59.937Z,5.37
2019-06-26T13:45:28.475Z,5.53
2019-06-26T13:47:57.115Z,5.67
2019-06-26T13:50:25.659Z,5.20
2019-06-26T13:52:54.221Z,5.05
2019-06-26T13:55:22.814Z,5.60
2019-06-26T13:57:51.371Z,4.87
2019-06-26T14:00:20.375Z,4.60
2019-06-26T14:02:49.002Z,5.20
2019-06-26T14:05:17.532Z,4.97
2019-06-26T14:07:46.010Z,5.15
2019-06-26T14:10:16.049Z,4.87
2019-06-26T14:12:44.877Z,4.67
2019-06-26T14:15:14.384Z,4.47
2019-06-26T14:17:42.906Z,4.65
2019-06-26T14:20:11.628Z,5.17
2019-06-26T14:22:40.170Z,4.75
2019-06-26T14:25:09.215Z,5.35
2019-06-26T14:27:37.767Z,5.10
2019-06-26T14:30:09.333Z,4.53
2019-06-26T14:32:37.795Z,4.78
2019-06-26T14:35:06.530Z,4.65
2019-06-26T14:37:35.147Z,4.58
2019-06-26T14:40:05.964Z,4.22
2019-06-26T14:42:34.421Z,4.87
2019-06-26T14:45:02.939Z,4.65
2019-06-26T14:47:35.394Z,4.60
2019-06-26T14:50:02.196Z,4.67
2019-06-26T14:52:30.739Z,4.30
2019-06-26T14:54:59.267Z,4.65
2019-06-26T14:57:27.760Z,5.40
2019-06-26T14:59:56.327Z,5.12
2019-06-26T15:02:24.912Z,4.80
2019-06-26T15:04:53.546Z,4.95
2019-06-26T15:07:22.079Z,4.95
2019-06-26T15:09:50.716Z,4.97
2019-06-26T15:12:19.281Z,5.10
2019-06-26T15:14:47.857Z,4.80
2019-06-26T15:17:16.338Z,4.78
2019-06-26T15:19:44.913Z,4.45
2019-06-26T15:22:13.534Z,4.92
2019-06-26T15:24:42.109Z,4.62
2019-06-26T15:27:10.588Z,4.65
2019-06-26T15:29:39.157Z,4.75
2019-06-26T15:32:07.629Z,4.78
2019-06-26T15:34:36.211Z,4.78
2019-06-26T15:37:04.812Z,5.03
2019-06-26T15:39:33.278Z,4.33
2019-06-26T15:42:01.774Z,4.53
2019-06-26T15:44:30.331Z,4.65
2019-06-26T15:46:58.848Z,4.30
2019-06-26T15:49:27.322Z,4.70
2019-06-26T15:51:55.868Z,5.45
2019-06-26T15:54:24.359Z,5.00
2019-06-26T15:56:52.909Z,5.00
2019-06-26T15:59:21.520Z,4.92
2019-06-26T16:01:50.069Z,4.60
2019-06-26T16:04:18.688Z,5.00
2019-06-26T16:06:47.251Z,5.28
2019-06-26T16:09:15.721Z,4.67
2019-06-26T16:11:44.268Z,5.47
2019-06-26T16:14:12.770Z,4.53
2019-06-26T16:16:42.949Z,4.92
2019-06-26T16:19:15.590Z,5.08
2019-06-26T16:21:44.138Z,4.50
2019-06-26T16:24:12.618Z,4.70
2019-06-26T16:26:41.164Z,4.90
2019-06-26T16:29:09.744Z,4.65
2019-06-26T16:31:38.367Z,5.37
2019-06-26T16:34:06.907Z,5.08
2019-06-26T16:36:35.403Z,5.40
2019-06-26T16:39:05.650Z,5.30
2019-06-26T16:41:34.265Z,5.60
2019-06-26T16:44:02.832Z,5.00
2019-06-26T16:46:31.392Z,4.83
2019-06-26T16:48:59.888Z,4.60
2019-06-26T16:51:28.372Z,5.45
2019-06-26T16:53:56.982Z,4.60
2019-06-26T16:56:25.620Z,4.92
2019-06-26T16:58:54.184Z,5.50
2019-06-26T17:01:22.765Z,5.97
2019-06-26T17:03:51.297Z,5.03
2019-06-26T17:06:19.975Z,4.85
2019-06-26T17:08:48.502Z,5.05
2019-06-26T17:11:17.034Z,5.03
2019-06-26T17:13:45.501Z,4.90
2019-06-26T17:16:13.986Z,5.25
2019-06-26T17:18:42.453Z,5.62
2019-06-26T17:21:11.097Z,5.85
2019-06-26T17:23:39.788Z,5.45
2019-06-26T17:26:08.361Z,5.35
2019-06-26T17:28:36.852Z,5.12
2019-06-26T17:31:05.404Z,5.95
2019-06-26T17:33:33.956Z,6.15
2019-06-26T17:36:02.468Z,5.87
2019-06-26T17:38:31.035Z,5.45
2019-06-26T17:40:59.745Z,5.85
2019-06-26T17:43:28.272Z,6.12
2019-06-26T17:45:56.820Z,5.85
2019-06-26T17:48:25.360Z,5.70
2019-06-26T17:50:53.935Z,6.10
2019-06-26T17:53:22.520Z,5.87
2019-06-26T17:55:51.075Z,5.85
2019-06-26T17:58:19.661Z,6.25
2019-06-26T18:00:48.319Z,5.95
2019-06-26T18:03:16.856Z,6.55
2019-06-26T18:05:45.501Z,6.72
2019-06-26T18:08:14.049Z,6.37
2019-06-26T18:10:42.603Z,6.30
2019-06-26T18:13:11.103Z,6.53
2019-06-26T18:15:39.700Z,6.35
2019-06-26T18:18:08.211Z,6.50
2019-06-26T18:20:36.743Z,6.22
2019-06-26T18:23:07.452Z,6.70
2019-06-26T18:25:35.497Z,6.10
2019-06-26T18:28:04.058Z,6.12
2019-06-26T18:30:32.633Z,6.10
2019-06-26T18:33:01.176Z,6.30
2019-06-26T18:35:29.634Z,6.75
2019-06-26T18:37:58.124Z,5.92
2019-06-26T18:40:26.655Z,6.60
2019-06-26T18:42:55.174Z,6.55
2019-06-26T18:45:23.795Z,6.33
2019-06-26T18:47:52.408Z,6.85
2019-06-26T18:50:20.967Z,6.85
2019-06-26T18:52:49.431Z,6.78
2019-06-26T18:55:18.067Z,6.87
2019-06-26T18:57:46.528Z,7.17
2019-06-26T19:00:16.470Z,7.62
2019-06-26T19:02:45.130Z,6.85
2019-06-26T19:05:13.798Z,6.72
2019-06-26T19:07:42.256Z,7.05
2019-06-26T19:10:11.488Z,6.75
2019-06-26T19:12:40.091Z,7.50
2019-06-26T19:15:08.819Z,6.83
2019-06-26T19:17:37.291Z,7.45
2019-06-26T19:20:07.685Z,6.60
2019-06-26T19:22:36.283Z,7.30
2019-06-26T19:25:09.456Z,6.83
2019-06-26T19:27:38.018Z,7.33
2019-06-26T19:30:08.876Z,7.20
2019-06-26T19:32:37.729Z,7.53
2019-06-26T19:35:18.354Z,8.05
2019-06-26T19:37:37.706Z,7.60
2019-06-26T19:40:08.674Z,7.60
2019-06-26T19:42:37.256Z,7.47
2019-06-26T19:45:09.767Z,9.08
2019-06-26T19:47:38.326Z,7.83
2019-06-26T19:50:08.420Z,8.50
2019-06-26T19:52:37.674Z,8.98
2019-06-26T19:55:07.252Z,7.72
2019-06-26T19:57:35.834Z,8.15
2019-06-26T20:00:06.915Z,8.20
2019-06-26T20:02:35.483Z,8.85
2019-06-26T20:05:06.886Z,8.30
2019-06-26T20:07:35.529Z,8.50
2019-06-26T20:10:06.217Z,8.88
2019-06-26T20:12:35.152Z,8.75
2019-06-26T20:15:05.605Z,8.78
2019-06-26T20:17:34.247Z,8.15
2019-06-26T20:20:04.033Z,8.38
2019-06-26T20:22:32.625Z,8.25
2019-06-26T20:25:01.235Z,9.18
2019-06-26T20:27:29.880Z,8.35
2019-06-26T20:29:58.573Z,9.00
2019-06-26T20:32:27.192Z,8.75
2019-06-26T20:34:55.774Z,8.33
2019-06-26T20:37:24.311Z,8.70
2019-06-26T20:39:52.878Z,8.78
2019-06-26T20:42:21.356Z,8.50
2019-06-26T20:44:49.854Z,9.73
2019-06-26T20:47:18.397Z,9.35
2019-06-26T20:49:53.292Z,8.40
2019-06-26T20:52:17.248Z,9.23
2019-06-26T20:55:00.139Z,8.48
2019-06-26T20:57:16.022Z,9.40
2019-06-26T20:59:44.521Z,8.68
2019-06-26T21:02:13.004Z,10.10
2019-06-26T21:04:41.652Z,8.88
2019-06-26T21:07:10.283Z,9.23
2019-06-26T21:09:38.978Z,9.13
2019-06-26T21:12:07.550Z,8.53
2019-06-26T21:14:36.100Z,9.33
2019-06-26T21:17:04.594Z,8.43
2019-06-26T21:19:35.466Z,8.90
2019-06-26T21:22:04.053Z,9.38
2019-06-26T21:24:32.586Z,8.23
2019-06-26T21:27:01.216Z,8.23
2019-06-26T21:29:29.866Z,9.10
2019-06-26T21:31:58.438Z,8.83
2019-06-26T21:34:27.026Z,9.00
2019-06-26T21:36:55.511Z,9.30
2019-06-26T21:39:24.336Z,9.43
2019-06-26T21:41:52.878Z,8.63
2019-06-26T21:44:21.403Z,9.38
2019-06-26T21:46:49.883Z,9.08
2019-06-26T21:49:18.379Z,8.25
2019-06-26T21:51:46.912Z,8.38
2019-06-26T21:54:15.419Z,8.68
2019-06-26T21:56:43.982Z,8.10
2019-06-26T21:59:12.470Z,7.97
2019-06-26T22:01:41.075Z,7.97
2019-06-26T22:04:10.271Z,9.00
2019-06-26T22:06:39.406Z,8.48
2019-06-26T22:09:08.298Z,8.58
2019-06-26T22:11:36.958Z,9.43
2019-06-26T22:14:05.730Z,8.23
2019-06-26T22:16:34.228Z,8.50
2019-06-26T22:19:02.756Z,9.33
2019-06-26T22:21:31.562Z,8.70
2019-06-26T22:24:00.108Z,8.70
2019-06-26T22:26:28.610Z,8.50
2019-06-26T22:28:57.131Z,8.25
2019-06-26T22:31:25.807Z,8.38
2019-06-26T22:33:54.472Z,8.60
2019-06-26T22:36:23.020Z,8.65
2019-06-26T22:38:51.588Z,8.00
2019-06-26T22:41:20.061Z,8.00
2019-06-26T22:43:48.618Z,8.45
2019-06-26T22:46:17.100Z,8.45
2019-06-26T22:48:45.748Z,7.80
2019-06-26T22:51:14.378Z,8.30
2019-06-26T22:53:42.972Z,8.23
2019-06-26T22:56:11.526Z,8.13
2019-06-26T22:58:40.082Z,7.85
2019-06-26T23:01:08.627Z,8.40
2019-06-26T23:03:37.172Z,8.68
2019-06-26T23:06:05.758Z,7.62
2019-06-26T23:08:34.316Z,8.08
2019-06-26T23:11:02.940Z,8.23
2019-06-26T23:13:31.518Z,7.58
2019-06-26T23:16:00.035Z,7.45
2019-06-26T23:18:28.490Z,7.12
2019-06-26T23:20:57.141Z,7.20
2019-06-26T23:23:25.599Z,7.50
2019-06-26T23:25:55.716Z,7.50
2019-06-26T23:28:24.267Z,7.15
2019-06-26T23:30:52.836Z,7.30
2019-06-26T23:33:21.306Z,7.80
2019-06-26T23:35:50.123Z,7.40
2019-06-26T23:38:18.596Z,7.30
2019-06-26T23:40:47.237Z,7.62
2019-06-26T23:43:15.838Z,7.22
2019-06-26T23:45:44.635Z,7.50
2019-06-26T23:48:13.136Z,6.65
2019-06-26T23:50:41.598Z,6.95
2019-06-26T23:53:10.126Z,6.65
2019-06-26T23:55:38.664Z,8.28
2019-06-26T23:58:07.456Z,7.37
